This is the latest recevied weather packets stored in our database for station/object N8QF-1. If no packets are shown the sender has not sent any weather packets the latest 10 day(s).
| Time | Temp. | Humidity | Pressure | Rain* | Wind** | Luminosity | Snow |
|---|---|---|---|---|---|---|---|
| 1777927088 | 22.22° C | 48% | 1007.2 hPa | 0 mm | - | - | - |
| 1777926486 | 21.67° C | 51% | 1007.6 hPa | 0 mm | - | - | - |
| 1777926185 | 21.67° C | 51% | 1007.8 hPa | 0 mm | - | - | - |
| 1777925885 | 21.67° C | 50% | 1007.7 hPa | 0 mm | - | - | - |
| 1777925584 | 21.67° C | 52% | 1007.7 hPa | 0 mm | - | - | - |
| 1777925284 | 21.11° C | 54% | 1007.7 hPa | 0 mm | - | - | - |
| 1777924983 | 20.56° C | 54% | 1007.8 hPa | 0 mm | - | - | - |
| 1777924682 | 20° C | 56% | 1007.8 hPa | 0 mm | - | - | - |
| 1777924081 | 20° C | 60% | 1007.9 hPa | 0 mm | - | - | - |
| 1777923479 | 19.44° C | 60% | 1008 hPa | 0 mm | - | - | - |
| 1777923179 | 19.44° C | 60% | 1008.1 hPa | 0 mm | - | - | - |
| 1777922878 | 19.44° C | 60% | 1007.9 hPa | 0 mm | - | - | - |
| 1777922578 | 19.44° C | 60% | 1008.1 hPa | 0 mm | - | - | - |
| 1777922277 | 19.44° C | 60% | 1008.5 hPa | 0 mm | - | - | - |
| 1777921977 | 19.44° C | 60% | 1008.3 hPa | 0 mm | - | - | - |
| 1777921676 | 18.89° C | 60% | 1007.8 hPa | 0 mm | - | - | - |
| 1777921376 | 18.89° C | 59% | 1008.2 hPa | 0 mm | - | - | - |
| 1777921074 | 19.44° C | 58% | 1009.3 hPa | 0 mm | - | - | - |
| 1777920774 | 20° C | 54% | 1009 hPa | 0 mm | - | - | - |
| 1777920473 | 20.56° C | 52% | 1008.9 hPa | 0 mm | - | - | - |
| 1777920172 | 20.56° C | 52% | 1008.9 hPa | 0 mm | - | - | - |
| 1777919872 | 20.56° C | 53% | 1008.7 hPa | 0 mm | - | - | - |
| 1777919571 | 21.11° C | 51% | 1008.7 hPa | 0 mm | - | - | - |
| 1777918968 | 21.11° C | 49% | 1008.3 hPa | 0 mm | - | - | - |
| 1777918668 | 21.11° C | 49% | 1008 hPa | 0 mm | - | - | - |
* Rain latest hour (hover to see other rain measurements)
** Current wind speed in m/s (hover to see current wind gust speed)